Austin, TX (78727)

1:31 AM CDT on March 30, 2015 (GMT -0500)
Milwood Adelphi | | Change Station
CLOSE
Current Station
Personal Weather Station
Location: Austin, TX
Elevation: 791 ft
Nearby Weather Stations

Elev 791 ft 30.43 °N, 97.72 °W | Updated 9 minutes ago

Clear
Clear
64.4 °F
Feels Like 64.4 °F
N
2.2
Wind Variable Wind from WSW

Today
High -- | Low -- °F
--% Chance of Precip.
Yesterday
High -- | Low -- °F
Precip. -- in
7:22 AM 7:48 PM
Waxing Gibbous, 77% visible
Pressure 30.13 in
Visibility 10.0 miles
Clouds Mostly Cloudy 1500 ft
Dew Point 61 °F
Humidity 89%
Rainfall 0.00 in
Snow Depth Not available.
UV 0 out of 12
Pollen 9.60 out of 12
Air Quality Not available.
Flu Activity Not available.
SPECI KATT 300616Z AUTO 19005KT 10SM BKN015 18/16 A3013 RMK AO2 T01780156

More Conditions Fewer Conditions

Pressure 30.13 in
Visibility 10.0 miles
Clouds Mostly Cloudy 1500 ft
Dew Point 61 °F
Humidity 89%
Rainfall 0.00 in
Snow Depth Not available.
UV 0 out of 12
Pollen 9.60 out of 12
Air Quality Not available.
Flu Activity Not available.
SPECI KATT 300616Z AUTO 19005KT 10SM BKN015 18/16 A3013 RMK AO2 T01780156

More Conditions Fewer Conditions

10-Day Weather Forecast

Almanac

Astronomy

Mar. 30, 2015 Rise Set
Actual Time
Civil Twilight
Nautical Twilight
Astronomical Twilight
Moon
Length of Visible Light
Length of Day
Tomorrow will be .
, % of the Moon is Illuminated

Today's Extremes

State Highs State Lows

Community

WunderPhotos

Upload Photos

1,809,439 photos uploaded!

WunderBlogs® & News

Nearby

Air Quality

  Air Quality AQ Index Pollutant
Not available.

Snow Depth

Station Depth Elevation

Earthquake Activity

City Distance Mag. Time & Date
Minimum magnitude displayed is 2.5.

Coastal Water Temperatures

Place Temperature

Stations

Nearby Weather Stations

Station Location Temp. Windchill Dew Point Humidity Wind Precip. Elev Updated Type